createdAt,value
2019-03-22T00:00:53.491Z,59.80
2019-03-22T00:01:53.475Z,62.90
2019-03-22T00:02:53.453Z,60.80
2019-03-22T00:03:53.457Z,57.50
2019-03-22T00:04:53.431Z,60.90
2019-03-22T00:05:53.419Z,62.60
2019-03-22T00:06:53.416Z,58.90
2019-03-22T00:07:53.404Z,60.60
2019-03-22T00:08:53.413Z,59.00
2019-03-22T00:09:53.375Z,66.40
2019-03-22T00:10:53.370Z,62.60
2019-03-22T00:11:53.354Z,61.60
2019-03-22T00:12:53.355Z,63.60
2019-03-22T00:13:53.337Z,56.00
2019-03-22T00:14:53.337Z,61.90
2019-03-22T00:15:53.314Z,59.60
2019-03-22T00:16:53.298Z,59.70
2019-03-22T00:17:53.289Z,60.00
2019-03-22T00:18:53.288Z,60.60
2019-03-22T00:19:53.267Z,59.40
2019-03-22T00:20:53.271Z,58.50
2019-03-22T00:21:53.247Z,57.80
2019-03-22T00:22:53.240Z,61.90
2019-03-22T00:23:53.222Z,58.70
2019-03-22T00:24:53.220Z,59.30
2019-03-22T00:25:53.209Z,59.20
2019-03-22T00:26:53.203Z,62.30
2019-03-22T00:27:53.180Z,57.80
2019-03-22T00:28:53.172Z,59.90
2019-03-22T00:29:53.160Z,58.60
2019-03-22T00:30:53.153Z,60.50
2019-03-22T00:31:53.135Z,63.30
2019-03-22T00:32:54.177Z,60.90
2019-03-22T00:33:53.118Z,60.80
2019-03-22T00:34:53.121Z,59.60
2019-03-22T00:35:53.104Z,61.50
2019-03-22T00:36:53.079Z,62.80
2019-03-22T00:37:53.080Z,61.70
2019-03-22T00:38:53.074Z,60.80
2019-03-22T00:39:53.049Z,64.50
2019-03-22T00:40:53.047Z,62.20
2019-03-22T00:41:53.025Z,62.10
2019-03-22T00:42:53.014Z,60.20
2019-03-22T00:43:53.008Z,61.80
2019-03-22T00:44:53.004Z,64.60
2019-03-22T00:45:52.993Z,63.70
2019-03-22T00:46:52.979Z,64.10
2019-03-22T00:47:52.959Z,66.70
2019-03-22T00:48:52.950Z,65.80
2019-03-22T00:49:52.937Z,62.60
2019-03-22T00:50:52.938Z,65.20
2019-03-22T00:51:52.915Z,67.30
2019-03-22T00:52:52.915Z,68.60
2019-03-22T00:53:52.893Z,64.30
2019-03-22T00:54:52.882Z,66.40
2019-03-22T00:55:52.893Z,63.50
2019-03-22T00:56:52.859Z,63.40
2019-03-22T00:57:52.850Z,62.30
2019-03-22T00:58:52.856Z,61.90
2019-03-22T00:59:52.831Z,65.50
2019-03-22T01:00:52.821Z,64.20
2019-03-22T01:01:52.819Z,61.10
2019-03-22T01:02:52.796Z,63.00
2019-03-22T01:03:52.842Z,60.00
2019-03-22T01:04:52.782Z,66.70
2019-03-22T01:05:52.770Z,61.60
2019-03-22T01:06:52.767Z,62.60
2019-03-22T01:07:52.742Z,62.80
2019-03-22T01:08:52.728Z,62.90
2019-03-22T01:09:52.719Z,66.10
2019-03-22T01:10:52.706Z,64.00
2019-03-22T01:11:52.715Z,59.90
2019-03-22T01:12:52.698Z,61.50
2019-03-22T01:13:52.676Z,60.50
2019-03-22T01:14:52.667Z,58.80
2019-03-22T01:15:52.655Z,56.60
2019-03-22T01:16:52.642Z,59.60
2019-03-22T01:17:52.646Z,59.40
2019-03-22T01:18:52.621Z,61.00
2019-03-22T01:19:52.608Z,59.60
2019-03-22T01:20:52.610Z,55.30
2019-03-22T01:21:52.588Z,56.80
2019-03-22T01:22:52.575Z,59.20
2019-03-22T01:23:52.588Z,54.90
2019-03-22T01:24:52.555Z,61.10
2019-03-22T01:25:52.540Z,58.50
2019-03-22T01:26:52.533Z,60.00
2019-03-22T01:27:52.518Z,59.30
2019-03-22T01:28:52.528Z,57.00
2019-03-22T01:29:52.517Z,58.90
2019-03-22T01:30:52.485Z,54.40
2019-03-22T01:31:52.475Z,58.90
2019-03-22T01:33:01.072Z,58.20
2019-03-22T01:33:52.454Z,56.50
2019-03-22T01:34:52.458Z,58.70
2019-03-22T01:35:52.440Z,60.40
2019-03-22T01:36:52.421Z,59.10
2019-03-22T01:37:52.411Z,54.50
2019-03-22T01:38:52.401Z,52.00
2019-03-22T01:39:52.415Z,55.50
2019-03-22T01:40:52.391Z,55.70
2019-03-22T01:41:52.365Z,56.40
2019-03-22T01:42:52.358Z,58.30
2019-03-22T01:43:52.342Z,54.90
2019-03-22T01:44:52.341Z,55.00
2019-03-22T01:45:52.339Z,53.80
2019-03-22T01:46:52.314Z,53.50
2019-03-22T01:47:52.301Z,52.90
2019-03-22T01:48:52.288Z,51.10
2019-03-22T01:49:52.276Z,55.20
2019-03-22T01:50:52.275Z,52.50
2019-03-22T01:51:52.265Z,55.00
2019-03-22T01:52:52.246Z,55.30
2019-03-22T01:53:52.236Z,52.00
2019-03-22T01:54:52.221Z,53.40
2019-03-22T01:55:52.230Z,57.10
2019-03-22T01:56:52.217Z,53.10
2019-03-22T01:57:53.852Z,53.90
2019-03-22T01:58:52.181Z,53.00
2019-03-22T01:59:52.167Z,52.20
2019-03-22T02:00:52.159Z,51.10
2019-03-22T02:01:52.165Z,54.40
2019-03-22T02:02:52.154Z,49.90
2019-03-22T02:03:52.123Z,52.10
2019-03-22T02:04:52.111Z,54.10
2019-03-22T02:05:52.104Z,55.80
2019-03-22T02:06:52.090Z,50.80
2019-03-22T02:07:52.094Z,52.10
2019-03-22T02:08:52.084Z,56.50
2019-03-22T02:09:52.059Z,56.90
2019-03-22T02:10:52.047Z,56.80
2019-03-22T02:11:52.037Z,57.90
2019-03-22T02:12:52.038Z,53.60
2019-03-22T02:13:52.024Z,61.20
2019-03-22T02:14:52.014Z,99.00
2019-03-22T02:15:51.993Z,69.70
2019-03-22T02:16:51.984Z,83.10
2019-03-22T02:17:51.968Z,87.20
2019-03-22T02:18:51.996Z,84.80
2019-03-22T02:19:51.948Z,97.70
2019-03-22T02:20:51.951Z,116.60
2019-03-22T02:21:51.927Z,84.80
2019-03-22T02:22:51.914Z,73.40
2019-03-22T02:23:52.262Z,65.00
2019-03-22T02:24:51.908Z,80.10
2019-03-22T02:25:51.881Z,82.50
2019-03-22T02:26:51.879Z,73.90
2019-03-22T02:28:03.450Z,79.30
2019-03-22T02:28:52.853Z,82.90
2019-03-22T02:29:51.838Z,60.70
2019-03-22T02:30:51.843Z,66.10
2019-03-22T02:31:51.819Z,76.60
2019-03-22T02:32:51.807Z,101.60
2019-03-22T02:33:51.809Z,89.00
2019-03-22T02:34:51.785Z,75.70
2019-03-22T02:35:51.777Z,75.10
2019-03-22T02:36:51.784Z,167.90
2019-03-22T02:37:51.757Z,85.10
2019-03-22T02:38:51.742Z,79.80
2019-03-22T02:39:51.748Z,99.80
2019-03-22T02:40:51.718Z,99.90
2019-03-22T02:41:51.738Z,76.10
2019-03-22T02:42:51.700Z,91.90
2019-03-22T02:43:54.617Z,96.90
2019-03-22T02:44:51.676Z,114.40
2019-03-22T02:45:51.692Z,116.90
2019-03-22T02:46:51.652Z,121.30
2019-03-22T02:47:51.651Z,123.50
2019-03-22T02:48:51.628Z,81.10
2019-03-22T02:49:51.617Z,112.50
2019-03-22T02:50:51.612Z,114.20
2019-03-22T02:51:51.610Z,121.80
2019-03-22T02:52:51.605Z,98.50
2019-03-22T02:53:51.571Z,96.90
2019-03-22T02:54:51.579Z,115.90
2019-03-22T02:55:51.715Z,101.60
2019-03-22T02:56:51.540Z,91.20
2019-03-22T02:57:51.567Z,87.30
2019-03-22T02:58:51.563Z,138.90
2019-03-22T02:59:51.515Z,110.70
2019-03-22T03:00:51.534Z,113.60
2019-03-22T03:01:51.550Z,98.30
2019-03-22T03:02:51.482Z,102.80
2019-03-22T03:03:51.493Z,126.50
2019-03-22T03:04:51.463Z,131.30
2019-03-22T03:05:51.473Z,119.90
2019-03-22T03:06:51.443Z,141.60
2019-03-22T03:07:51.432Z,154.80
2019-03-22T03:08:51.408Z,120.60
2019-03-22T03:09:51.422Z,130.20
2019-03-22T03:10:51.385Z,109.00
2019-03-22T03:11:51.389Z,106.10
2019-03-22T03:12:51.366Z,117.30
2019-03-22T03:13:51.351Z,93.10
2019-03-22T03:14:51.363Z,109.70
2019-03-22T03:15:51.395Z,149.40
2019-03-22T03:16:51.321Z,127.10
2019-03-22T03:17:51.330Z,114.30
2019-03-22T03:18:51.298Z,94.20
2019-03-22T03:19:51.301Z,80.60
2019-03-22T03:20:51.303Z,128.20
2019-03-22T03:21:51.272Z,155.90
2019-03-22T03:22:51.267Z,141.20
2019-03-22T03:23:51.244Z,101.20
2019-03-22T03:24:51.233Z,154.10
2019-03-22T03:25:51.224Z,127.60
2019-03-22T03:26:51.227Z,149.70
2019-03-22T03:27:51.199Z,128.30
2019-03-22T03:28:51.194Z,120.00
2019-03-22T03:29:51.171Z,89.10
2019-03-22T03:30:51.197Z,99.50
2019-03-22T03:31:51.157Z,102.40
2019-03-22T03:32:51.199Z,107.20
2019-03-22T03:33:51.357Z,100.50
2019-03-22T03:34:51.118Z,98.00
2019-03-22T03:35:51.133Z,112.30
2019-03-22T03:36:51.098Z,76.60
2019-03-22T03:37:51.087Z,114.80
2019-03-22T03:38:51.088Z,91.70
2019-03-22T03:39:51.075Z,125.40
2019-03-22T03:40:51.053Z,89.90
2019-03-22T03:41:51.040Z,145.20
2019-03-22T03:42:51.042Z,135.50
2019-03-22T03:43:51.022Z,112.40
2019-03-22T03:44:51.023Z,88.00
2019-03-22T03:45:51.027Z,96.20
2019-03-22T03:46:50.990Z,104.90
2019-03-22T03:47:50.977Z,132.50
2019-03-22T03:48:50.967Z,141.10
2019-03-22T03:49:50.953Z,107.80
2019-03-22T03:50:50.962Z,88.60
2019-03-22T03:51:50.941Z,79.80
2019-03-22T03:52:50.920Z,133.00
2019-03-22T03:53:50.915Z,109.00
2019-03-22T03:54:50.911Z,133.00
2019-03-22T03:55:50.883Z,109.80
2019-03-22T03:56:50.905Z,111.10
2019-03-22T03:57:50.940Z,103.10
2019-03-22T03:58:52.733Z,119.70
2019-03-22T03:59:50.878Z,99.00
2019-03-22T04:00:50.844Z,97.00
2019-03-22T04:01:50.820Z,118.10
2019-03-22T04:02:50.862Z,125.70
2019-03-22T04:03:50.797Z,105.50
2019-03-22T04:04:50.791Z,98.10
2019-03-22T04:05:50.779Z,92.40
2019-03-22T04:06:50.761Z,139.60
2019-03-22T04:07:50.757Z,119.80
2019-03-22T04:08:50.796Z,128.20
2019-03-22T04:09:50.731Z,123.60
2019-03-22T04:10:50.720Z,97.00
2019-03-22T04:11:50.708Z,81.80
2019-03-22T04:12:50.700Z,109.40
2019-03-22T04:13:50.688Z,79.70
2019-03-22T04:14:50.709Z,76.60
2019-03-22T04:15:50.665Z,99.70
2019-03-22T04:16:50.655Z,114.90
2019-03-22T04:17:50.646Z,98.70
2019-03-22T04:18:50.630Z,103.80
2019-03-22T04:19:50.638Z,152.10
2019-03-22T04:20:50.637Z,80.10
2019-03-22T04:21:50.594Z,177.80
2019-03-22T04:22:50.595Z,106.10
2019-03-22T04:23:50.587Z,160.90
2019-03-22T04:24:50.565Z,125.60
2019-03-22T04:25:50.574Z,88.60
2019-03-22T04:26:50.551Z,98.70
2019-03-22T04:27:50.549Z,122.60
2019-03-22T04:28:50.531Z,93.60
2019-03-22T04:29:50.508Z,91.00
2019-03-22T04:30:50.495Z,81.60
2019-03-22T04:31:50.498Z,93.10
2019-03-22T04:32:50.490Z,82.70
2019-03-22T04:33:50.476Z,92.60
2019-03-22T04:34:50.454Z,94.90
2019-03-22T04:35:50.442Z,123.10
2019-03-22T04:36:50.430Z,91.50
2019-03-22T04:37:50.429Z,95.70
2019-03-22T04:38:50.411Z,121.60
2019-03-22T04:39:50.415Z,99.00
2019-03-22T04:40:50.390Z,122.90
2019-03-22T04:41:50.375Z,118.80
2019-03-22T04:42:50.385Z,107.10
2019-03-22T04:43:50.353Z,99.90
2019-03-22T04:44:50.344Z,110.00
2019-03-22T04:45:50.350Z,96.00
2019-03-22T04:46:50.318Z,104.80
2019-03-22T04:47:50.311Z,98.90
2019-03-22T04:48:50.316Z,120.90
2019-03-22T04:49:50.286Z,99.00
2019-03-22T04:50:50.277Z,109.00
2019-03-22T04:51:50.268Z,112.80
2019-03-22T04:52:50.265Z,88.00
2019-03-22T04:53:50.252Z,76.00
2019-03-22T04:54:50.228Z,82.30
2019-03-22T04:55:50.222Z,105.70
2019-03-22T04:56:50.206Z,126.20
2019-03-22T04:57:50.196Z,153.30
2019-03-22T04:58:50.213Z,97.90
2019-03-22T04:59:50.175Z,113.90
2019-03-22T05:00:50.164Z,126.80
2019-03-22T05:01:50.150Z,150.50
2019-03-22T05:02:50.145Z,131.20
2019-03-22T05:03:50.156Z,141.10
2019-03-22T05:04:50.130Z,92.20
2019-03-22T05:05:50.106Z,153.30
2019-03-22T05:06:50.121Z,126.20
2019-03-22T05:07:50.091Z,160.20
2019-03-22T05:08:50.077Z,126.40
2019-03-22T05:09:50.075Z,154.80
2019-03-22T05:10:50.067Z,77.00
2019-03-22T05:11:50.045Z,75.70
2019-03-22T05:12:50.030Z,99.20
2019-03-22T05:13:50.021Z,133.80
2019-03-22T05:14:50.011Z,105.40
2019-03-22T05:15:50.000Z,79.00
2019-03-22T05:16:50.004Z,81.30
2019-03-22T05:17:49.990Z,127.60
2019-03-22T05:18:49.964Z,190.50
2019-03-22T05:19:49.952Z,99.40
2019-03-22T05:20:49.975Z,108.70
2019-03-22T05:21:49.932Z,104.40
2019-03-22T05:22:49.921Z,104.30
2019-03-22T05:23:49.908Z,97.20
2019-03-22T05:24:49.914Z,84.20
2019-03-22T05:25:49.886Z,73.80
2019-03-22T05:26:49.887Z,114.70
2019-03-22T05:27:49.865Z,107.70
2019-03-22T05:28:49.851Z,97.80
2019-03-22T05:29:49.841Z,88.20
2019-03-22T05:30:49.838Z,111.90
2019-03-22T05:31:49.833Z,106.20
2019-03-22T05:32:49.807Z,103.00
2019-03-22T05:33:49.803Z,94.90
2019-03-22T05:34:49.786Z,75.10
2019-03-22T05:35:49.775Z,132.30
2019-03-22T05:36:49.799Z,98.60
2019-03-22T05:37:49.753Z,86.50
2019-03-22T05:38:49.746Z,74.70
2019-03-22T05:39:49.732Z,64.50
2019-03-22T05:40:49.721Z,85.70
2019-03-22T05:41:49.707Z,71.80
2019-03-22T05:42:49.728Z,63.40
2019-03-22T05:43:49.687Z,90.80
2019-03-22T05:44:49.678Z,115.80
2019-03-22T05:45:49.663Z,73.80
2019-03-22T05:46:49.655Z,90.90
2019-03-22T05:47:49.641Z,74.10
2019-03-22T05:48:49.660Z,86.70
2019-03-22T05:49:49.619Z,70.70
2019-03-22T05:50:49.612Z,60.80
2019-03-22T05:51:49.600Z,75.50
2019-03-22T05:52:49.587Z,93.40
2019-03-22T05:53:49.587Z,103.40
2019-03-22T05:54:49.581Z,81.50
2019-03-22T05:55:49.572Z,65.90
2019-03-22T05:56:49.543Z,86.60
2019-03-22T05:57:49.531Z,79.00
2019-03-22T05:58:49.534Z,76.30
2019-03-22T05:59:49.508Z,99.50
2019-03-22T06:00:49.498Z,66.40
2019-03-22T06:01:49.530Z,80.70
2019-03-22T06:02:49.477Z,67.00
2019-03-22T06:03:49.463Z,100.90
2019-03-22T06:04:49.467Z,106.20
2019-03-22T06:05:49.444Z,116.30
2019-03-22T06:06:49.431Z,100.20
2019-03-22T06:07:49.428Z,100.20
2019-03-22T06:08:49.410Z,80.50
2019-03-22T06:09:49.413Z,110.00
2019-03-22T06:10:49.390Z,53.20
2019-03-22T06:11:49.373Z,53.60
2019-03-22T06:12:49.367Z,95.40
2019-03-22T06:13:49.369Z,80.80
2019-03-22T06:14:49.342Z,123.00
2019-03-22T06:15:49.347Z,91.50
2019-03-22T06:16:49.329Z,70.10
2019-03-22T06:17:51.994Z,98.80
2019-03-22T06:18:50.478Z,96.90
2019-03-22T06:19:49.299Z,93.90
2019-03-22T06:20:49.275Z,74.10
2019-03-22T06:21:49.275Z,123.30
2019-03-22T06:22:49.256Z,97.50
2019-03-22T06:23:49.245Z,68.80
2019-03-22T06:24:49.233Z,75.20
2019-03-22T06:25:49.226Z,72.70
2019-03-22T06:26:49.219Z,74.40
2019-03-22T06:27:49.199Z,104.50
2019-03-22T06:28:49.186Z,64.00
2019-03-22T06:29:54.059Z,83.70
2019-03-22T06:30:50.165Z,99.60
2019-03-22T06:31:49.189Z,99.70
2019-03-22T06:32:49.144Z,111.30
2019-03-22T06:33:49.132Z,101.00
2019-03-22T06:34:49.122Z,91.20
2019-03-22T06:35:49.109Z,110.70
2019-03-22T06:36:49.099Z,112.80
2019-03-22T06:37:49.101Z,86.10
2019-03-22T06:38:49.082Z,63.60
2019-03-22T06:39:49.080Z,78.20
2019-03-22T06:40:49.055Z,68.80
2019-03-22T06:41:49.043Z,70.20
2019-03-22T06:42:49.033Z,92.00
2019-03-22T06:43:49.021Z,71.30
2019-03-22T06:44:49.026Z,92.60
2019-03-22T06:45:49.009Z,69.90
2019-03-22T06:46:48.985Z,60.90
2019-03-22T06:47:48.976Z,86.40
2019-03-22T06:48:48.969Z,89.80
2019-03-22T06:49:48.954Z,67.10
2019-03-22T06:50:48.965Z,65.50
2019-03-22T06:51:48.945Z,51.20
2019-03-22T06:52:48.925Z,104.70
2019-03-22T06:53:48.912Z,68.60
2019-03-22T06:54:48.897Z,78.40
2019-03-22T06:55:48.886Z,62.60
2019-03-22T06:56:48.924Z,77.60
2019-03-22T06:57:48.869Z,47.50
2019-03-22T06:58:48.859Z,68.30
2019-03-22T06:59:48.841Z,66.90
2019-03-22T07:00:48.831Z,61.70
2019-03-22T07:01:48.829Z,86.70
2019-03-22T07:02:48.844Z,71.50
2019-03-22T07:03:48.801Z,82.70
2019-03-22T07:04:48.791Z,93.20
2019-03-22T07:05:48.778Z,89.20
2019-03-22T07:06:48.767Z,76.50
2019-03-22T07:07:48.753Z,69.70
2019-03-22T07:08:48.770Z,73.90
2019-03-22T07:09:48.735Z,76.00
2019-03-22T07:10:48.725Z,77.00
2019-03-22T07:11:48.711Z,102.30
2019-03-22T07:12:48.704Z,81.40
2019-03-22T07:13:48.706Z,93.00
2019-03-22T07:14:48.704Z,100.70
2019-03-22T07:15:48.666Z,73.90
2019-03-22T07:16:48.653Z,57.50
2019-03-22T07:17:48.651Z,63.50
2019-03-22T07:18:48.637Z,89.20
2019-03-22T07:19:48.641Z,68.20
2019-03-22T07:20:48.629Z,72.70
2019-03-22T07:21:48.607Z,54.30
2019-03-22T07:22:48.587Z,96.40
2019-03-22T07:23:48.575Z,66.00
2019-03-22T07:24:48.571Z,55.60
2019-03-22T07:25:48.570Z,73.30
2019-03-22T07:26:48.557Z,48.50
2019-03-22T07:27:48.534Z,53.80
2019-03-22T07:28:48.522Z,72.50
2019-03-22T07:29:48.510Z,71.00
2019-03-22T07:30:48.521Z,58.90
2019-03-22T07:31:48.493Z,52.20
2019-03-22T07:32:48.486Z,80.10
2019-03-22T07:33:56.120Z,68.60
2019-03-22T07:34:48.517Z,58.30
2019-03-22T07:35:48.443Z,61.30
2019-03-22T07:36:48.477Z,54.40
2019-03-22T07:37:48.481Z,64.40
2019-03-22T07:38:48.510Z,60.90
2019-03-22T07:39:48.403Z,70.10
2019-03-22T07:40:48.401Z,61.90
2019-03-22T07:41:48.379Z,61.60
2019-03-22T07:42:48.380Z,65.00
2019-03-22T07:43:48.396Z,67.20
2019-03-22T07:44:48.345Z,60.60
2019-03-22T07:45:48.333Z,53.90
2019-03-22T07:46:48.324Z,59.10
2019-03-22T07:47:48.329Z,58.50
2019-03-22T07:48:48.319Z,61.40
2019-03-22T07:49:48.288Z,56.00
2019-03-22T07:50:48.277Z,54.30
2019-03-22T07:51:48.267Z,55.00
2019-03-22T07:52:48.255Z,56.30
2019-03-22T07:53:48.255Z,56.30
2019-03-22T07:54:48.268Z,56.20
2019-03-22T07:55:48.223Z,55.10
2019-03-22T07:56:48.210Z,54.40
2019-03-22T07:57:48.207Z,55.30
2019-03-22T07:58:48.204Z,55.00
2019-03-22T07:59:48.182Z,54.50
2019-03-22T08:00:48.202Z,57.20
2019-03-22T08:01:48.159Z,56.90
2019-03-22T08:02:48.145Z,54.00
2019-03-22T08:03:48.134Z,52.60
2019-03-22T08:04:48.123Z,53.30
2019-03-22T08:05:51.428Z,53.20
2019-03-22T08:06:48.152Z,54.90
2019-03-22T08:07:48.089Z,51.30
2019-03-22T08:08:48.082Z,55.50
2019-03-22T08:09:51.062Z,52.30
2019-03-22T08:10:48.055Z,51.90
2019-03-22T08:11:48.098Z,57.50
2019-03-22T08:12:48.063Z,55.60
2019-03-22T08:13:48.028Z,56.70
2019-03-22T08:14:48.028Z,61.80
2019-03-22T08:15:48.013Z,60.50
2019-03-22T08:16:47.989Z,61.30
2019-03-22T08:17:47.992Z,62.10
2019-03-22T08:18:48.006Z,60.90
2019-03-22T08:19:47.955Z,65.10
2019-03-22T08:20:47.948Z,64.60
2019-03-22T08:21:47.964Z,60.60
2019-03-22T08:22:47.932Z,62.30
2019-03-22T08:23:47.926Z,61.80
2019-03-22T08:24:47.917Z,62.60
2019-03-22T08:25:47.889Z,60.50
2019-03-22T08:26:47.877Z,63.70
2019-03-22T08:27:47.873Z,57.80
2019-03-22T08:28:47.871Z,59.30
2019-03-22T08:29:47.878Z,61.90
2019-03-22T08:30:47.881Z,59.50
2019-03-22T08:31:56.797Z,57.70
2019-03-22T08:32:50.358Z,59.40
2019-03-22T08:33:47.870Z,55.30
2019-03-22T08:34:48.003Z,55.70
2019-03-22T08:35:47.792Z,56.70
2019-03-22T08:36:47.830Z,54.60
2019-03-22T08:37:52.910Z,54.00
2019-03-22T08:38:48.750Z,53.00
2019-03-22T08:39:47.733Z,53.90
2019-03-22T08:40:47.737Z,55.50
2019-03-22T08:41:47.716Z,53.60
2019-03-22T08:42:47.737Z,53.40
2019-03-22T08:43:47.693Z,52.80
2019-03-22T08:44:47.716Z,55.30
2019-03-22T08:45:47.698Z,53.70
2019-03-22T08:46:47.665Z,54.30
2019-03-22T08:47:47.646Z,53.60
2019-03-22T08:48:47.671Z,51.00
2019-03-22T08:49:47.819Z,52.20
2019-03-22T08:50:47.608Z,50.70
2019-03-22T08:51:49.679Z,52.10
2019-03-22T08:52:47.592Z,52.70
2019-03-22T08:53:55.037Z,51.00
2019-03-22T08:54:48.612Z,53.60
2019-03-22T08:55:47.556Z,52.10
2019-03-22T08:56:47.541Z,49.10
2019-03-22T08:57:47.573Z,50.20
2019-03-22T08:58:47.563Z,50.10
2019-03-22T08:59:47.514Z,48.90
2019-03-22T09:00:57.383Z,53.80
2019-03-22T09:01:48.484Z,54.60
2019-03-22T09:02:49.745Z,49.80
2019-03-22T09:03:47.479Z,52.30
2019-03-22T09:04:47.459Z,52.20
2019-03-22T09:05:47.449Z,50.20
2019-03-22T09:06:47.454Z,50.10
2019-03-22T09:07:47.421Z,50.70
2019-03-22T09:08:48.019Z,46.10
2019-03-22T09:09:47.440Z,48.10
2019-03-22T09:10:47.390Z,50.50
2019-03-22T09:11:47.415Z,53.60
2019-03-22T09:12:47.397Z,53.70
2019-03-22T09:13:47.440Z,50.40
2019-03-22T09:14:47.348Z,50.70
2019-03-22T09:15:47.343Z,51.60
2019-03-22T09:16:47.318Z,48.60
2019-03-22T09:17:47.361Z,51.30
2019-03-22T09:18:47.351Z,51.20
2019-03-22T09:19:47.325Z,49.90
2019-03-22T09:20:47.281Z,48.50
2019-03-22T09:21:47.296Z,49.80
2019-03-22T09:22:47.279Z,50.10
2019-03-22T09:23:47.264Z,52.00
2019-03-22T09:24:47.263Z,47.80
2019-03-22T09:25:47.223Z,51.80
2019-03-22T09:26:48.142Z,51.70
2019-03-22T09:27:47.213Z,48.00
2019-03-22T09:28:47.237Z,46.40
2019-03-22T09:29:47.470Z,46.50
2019-03-22T09:30:47.220Z,49.30
2019-03-22T09:31:47.173Z,50.80
2019-03-22T09:32:47.154Z,48.40
2019-03-22T09:33:47.176Z,51.60
2019-03-22T09:34:47.151Z,47.70
2019-03-22T09:35:47.156Z,43.40
2019-03-22T09:36:47.169Z,46.60
2019-03-22T09:37:47.127Z,47.40
2019-03-22T09:38:47.095Z,43.80
2019-03-22T09:39:47.085Z,46.40
2019-03-22T09:40:47.076Z,44.40
2019-03-22T09:41:47.043Z,45.60
2019-03-22T09:42:48.030Z,43.00
2019-03-22T09:43:47.078Z,46.00
2019-03-22T09:44:47.039Z,45.90
2019-03-22T09:45:46.999Z,44.00
2019-03-22T09:46:46.998Z,46.30
2019-03-22T09:47:46.975Z,44.80
2019-03-22T09:48:46.998Z,46.30
2019-03-22T09:49:46.958Z,47.00
2019-03-22T09:50:46.958Z,46.90
2019-03-22T09:51:46.932Z,46.30
2019-03-22T09:52:46.956Z,45.50
2019-03-22T09:53:46.911Z,43.80
2019-03-22T09:54:46.938Z,43.70
2019-03-22T09:55:46.888Z,46.30
2019-03-22T09:56:47.629Z,42.50
2019-03-22T09:57:49.371Z,40.70
2019-03-22T09:58:46.886Z,43.80
2019-03-22T09:59:46.901Z,44.50
2019-03-22T10:00:48.611Z,42.80
2019-03-22T10:01:46.841Z,40.60
2019-03-22T10:02:46.811Z,41.10
2019-03-22T10:03:46.888Z,40.00
2019-03-22T10:04:46.842Z,42.10
2019-03-22T10:05:46.786Z,41.20
2019-03-22T10:06:46.820Z,40.00
2019-03-22T10:07:46.805Z,42.30
2019-03-22T10:08:46.799Z,41.10
2019-03-22T10:09:46.766Z,43.10
2019-03-22T10:10:46.785Z,39.90
2019-03-22T10:11:46.709Z,42.00
2019-03-22T10:12:46.728Z,40.80
2019-03-22T10:13:48.347Z,36.50
2019-03-22T10:14:46.709Z,40.10
2019-03-22T10:15:46.682Z,37.60
2019-03-22T10:16:47.714Z,38.70
2019-03-22T10:17:46.646Z,39.40
2019-03-22T10:18:46.714Z,37.50
2019-03-22T10:19:46.642Z,37.70
2019-03-22T10:20:46.676Z,36.50
2019-03-22T10:21:46.602Z,36.00
2019-03-22T10:22:46.601Z,46.00
2019-03-22T10:23:46.680Z,37.90
2019-03-22T10:24:46.589Z,39.60
2019-03-22T10:25:46.573Z,35.10
2019-03-22T10:26:46.553Z,34.00
2019-03-22T10:27:46.546Z,35.90
2019-03-22T10:28:46.522Z,34.90
2019-03-22T10:29:46.542Z,36.60
2019-03-22T10:30:46.564Z,35.70
2019-03-22T10:31:46.502Z,34.70
2019-03-22T10:32:46.480Z,37.70
2019-03-22T10:33:46.499Z,36.70
2019-03-22T10:34:46.492Z,36.70
2019-03-22T10:35:46.456Z,35.80
2019-03-22T10:36:46.515Z,34.90
2019-03-22T10:37:46.429Z,34.20
2019-03-22T10:38:46.427Z,36.00
2019-03-22T10:39:46.432Z,34.90
2019-03-22T10:40:46.428Z,34.70
2019-03-22T10:41:46.395Z,33.10
2019-03-22T10:42:46.431Z,34.00
2019-03-22T10:43:46.430Z,33.40
2019-03-22T10:44:46.349Z,33.50
2019-03-22T10:45:46.386Z,33.50
2019-03-22T10:46:46.322Z,33.10
2019-03-22T10:47:46.407Z,34.90
2019-03-22T10:48:46.396Z,34.70
2019-03-22T10:49:46.296Z,32.40
2019-03-22T10:50:46.280Z,33.80
2019-03-22T10:51:56.035Z,32.60
2019-03-22T10:52:48.370Z,29.60
2019-03-22T10:53:46.317Z,36.10
2019-03-22T10:54:46.275Z,32.00
2019-03-22T10:55:46.233Z,30.70
2019-03-22T10:56:46.217Z,33.00
2019-03-22T10:57:46.200Z,33.40
2019-03-22T10:58:46.203Z,33.20
2019-03-22T10:59:46.179Z,31.40
2019-03-22T11:00:46.188Z,30.50
2019-03-22T11:01:57.543Z,31.40
2019-03-22T11:02:47.144Z,28.60
2019-03-22T11:03:46.190Z,31.40
2019-03-22T11:04:46.162Z,31.80
2019-03-22T11:05:46.111Z,30.00
2019-03-22T11:06:46.106Z,27.90
2019-03-22T11:07:46.133Z,33.50
2019-03-22T11:08:46.084Z,28.90
2019-03-22T11:09:46.081Z,30.00
2019-03-22T11:10:46.092Z,28.50
2019-03-22T11:11:46.069Z,29.00
2019-03-22T11:12:46.034Z,29.30
2019-03-22T11:13:46.079Z,25.10
2019-03-22T11:14:46.024Z,25.50
2019-03-22T11:15:48.770Z,27.50
2019-03-22T11:16:46.004Z,24.90
2019-03-22T11:17:45.980Z,26.90
2019-03-22T11:18:45.970Z,33.20
2019-03-22T11:19:45.979Z,31.30
2019-03-22T11:20:45.963Z,22.70
2019-03-22T11:21:45.981Z,25.00
2019-03-22T11:22:45.925Z,27.40
2019-03-22T11:23:45.913Z,23.20
2019-03-22T11:24:45.904Z,23.40
2019-03-22T11:25:45.893Z,25.90
2019-03-22T11:26:45.921Z,25.80
2019-03-22T11:27:45.870Z,24.20
2019-03-22T11:28:45.867Z,23.80
2019-03-22T11:29:45.847Z,21.40
2019-03-22T11:30:45.838Z,21.10
2019-03-22T11:31:45.850Z,25.40
2019-03-22T11:32:45.835Z,21.80
2019-03-22T11:33:45.807Z,18.90
2019-03-22T11:34:45.795Z,21.40
2019-03-22T11:35:45.784Z,20.10
2019-03-22T11:36:45.772Z,17.60
2019-03-22T11:37:45.773Z,16.90
2019-03-22T11:38:45.795Z,17.40
2019-03-22T11:39:45.740Z,15.40
2019-03-22T11:40:46.948Z,15.20
2019-03-22T11:41:45.717Z,15.00
2019-03-22T11:42:45.747Z,15.70
2019-03-22T11:43:45.695Z,15.10
2019-03-22T11:44:45.714Z,14.90
2019-03-22T11:45:45.682Z,16.50
2019-03-22T11:46:45.678Z,14.70
2019-03-22T11:47:45.652Z,15.50
2019-03-22T11:48:45.650Z,15.90
2019-03-22T11:49:45.632Z,15.80
2019-03-22T11:50:45.651Z,14.40
2019-03-22T11:51:45.608Z,15.30
2019-03-22T11:52:45.626Z,15.10
2019-03-22T11:53:45.599Z,18.10
2019-03-22T11:54:45.575Z,16.00
2019-03-22T11:55:45.567Z,17.30
2019-03-22T11:56:45.589Z,17.50
2019-03-22T11:57:45.560Z,16.30
2019-03-22T11:58:45.532Z,19.20
2019-03-22T11:59:45.520Z,15.70
2019-03-22T12:00:45.526Z,16.10
2019-03-22T12:01:45.536Z,15.50
2019-03-22T12:02:45.512Z,16.10
2019-03-22T12:03:45.501Z,15.30
2019-03-22T12:04:45.464Z,16.40
2019-03-22T12:05:45.478Z,19.20
2019-03-22T12:06:45.442Z,17.30
2019-03-22T12:07:45.437Z,20.00
2019-03-22T12:08:45.444Z,21.60
2019-03-22T12:09:45.411Z,14.00
2019-03-22T12:10:45.418Z,16.40
2019-03-22T12:11:45.403Z,12.90
2019-03-22T12:12:45.378Z,10.90
2019-03-22T12:13:45.379Z,12.00
2019-03-22T12:14:45.405Z,14.90
2019-03-22T12:15:45.345Z,12.60
2019-03-22T12:16:45.337Z,14.20
2019-03-22T12:17:45.335Z,14.20
2019-03-22T12:18:45.315Z,13.40
2019-03-22T12:19:45.313Z,14.10
2019-03-22T12:20:45.328Z,13.50
2019-03-22T12:21:45.278Z,14.00
2019-03-22T12:22:45.271Z,14.90
2019-03-22T12:23:45.280Z,14.40
2019-03-22T12:24:45.246Z,15.60
2019-03-22T12:25:45.236Z,13.70
2019-03-22T12:26:45.269Z,13.40
2019-03-22T12:27:45.217Z,13.00
2019-03-22T12:28:45.222Z,14.10
2019-03-22T12:29:45.193Z,12.40
2019-03-22T12:30:45.205Z,11.60
2019-03-22T12:31:45.169Z,14.60
2019-03-22T12:32:45.201Z,14.80
2019-03-22T12:33:45.148Z,15.60
2019-03-22T12:34:45.162Z,13.60
2019-03-22T12:35:45.139Z,13.20
2019-03-22T12:36:45.117Z,12.80
2019-03-22T12:37:45.104Z,15.20
2019-03-22T12:38:45.120Z,14.30
2019-03-22T12:39:45.083Z,12.00
2019-03-22T12:40:45.092Z,12.70
2019-03-22T12:41:45.059Z,11.60
2019-03-22T12:42:45.051Z,14.20
2019-03-22T12:43:45.066Z,12.60
2019-03-22T12:44:45.068Z,13.00
2019-03-22T12:45:45.032Z,13.80
2019-03-22T12:46:45.006Z,16.60
2019-03-22T12:47:44.995Z,15.60
2019-03-22T12:48:44.985Z,16.90